Page, ND (58064)

3:12 AM CST on November 22, 2014 (GMT -0600)
Home of the Absaraka Crows | Change Station
CLOSE
Current Station
Personal Weather Station
Location: Absaraka, ND
Elevation: 1066 ft
Nearby Weather Stations

Elev 1066 ft 46.98 °N, 97.39 °W | Updated 9 seconds ago

Clear
Clear
32.0 °F
Feels Like 26 °F
N
6.9
Wind Variable Wind from West
Gusts 9.2 mph

Today
High -- | Low -- °F
--% Chance of Precip.
Yesterday
High -- | Low -- °F
Precip. -- in
7:44 AM 4:48 PM
Waning Crescent, 0% visible
Pressure 29.65 in
Visibility 10.0 miles
Clouds Clear
Windchill 26 °F
Dew Point 29 °F
Humidity 87%
Rainfall 0.00 in
Snow Depth Not available.
UV 0 out of 12
Pollen .10 out of 12
Air Quality Not available.
Flu Activity Not available.
METAR KBAC 220855Z AUTO 21007KT 10SM CLR M07/M07 A2965 RMK AO2

More Conditions Fewer Conditions

Pressure 29.65 in
Visibility 10.0 miles
Clouds Clear
Windchill 26 °F
Dew Point 29 °F
Humidity 87%
Rainfall 0.00 in
Snow Depth Not available.
UV 0 out of 12
Pollen .10 out of 12
Air Quality Not available.
Flu Activity Not available.
METAR KBAC 220855Z AUTO 21007KT 10SM CLR M07/M07 A2965 RMK AO2

More Conditions Fewer Conditions

10-Day Weather Forecast

Almanac

Astronomy

Nov. 22, 2014 Rise Set
Actual Time
Civil Twilight
Nautical Twilight
Astronomical Twilight
Moon
Length of Visible Light
Length of Day
Tomorrow will be .
, % of the Moon is Illuminated

Today's Extremes

State Highs State Lows

Community

WunderPhotos

Upload Photos

1,772,794 photos uploaded!

WunderBlogs® & News

Nearby

Air Quality

  Air Quality AQ Index Pollutant
Not available.

Snow Depth

Station Depth Elevation

Earthquake Activity

City Distance Mag. Time & Date
Minimum magnitude displayed is 2.5.

Coastal Water Temperatures

Place Temperature

Nearby Weather Stations